createdAt,value
2023-01-07T00:00:35.640Z,1.27
2023-01-07T00:03:23.319Z,1.83
2023-01-07T00:06:07.080Z,1.10
2023-01-07T00:08:38.072Z,0.65
2023-01-07T00:11:07.992Z,1.00
2023-01-07T00:13:36.939Z,1.00
2023-01-07T00:16:09.156Z,1.23
2023-01-07T00:18:54.265Z,1.10
2023-01-07T00:21:36.235Z,1.27
2023-01-07T00:24:18.465Z,1.20
2023-01-07T00:27:05.295Z,1.00
2023-01-07T00:29:56.025Z,0.90
2023-01-07T00:33:05.099Z,1.00
2023-01-07T00:35:46.015Z,1.27
2023-01-07T00:38:26.760Z,1.05
2023-01-07T00:40:55.205Z,1.15
2023-01-07T00:43:26.232Z,1.10
2023-01-07T00:45:55.071Z,0.90
2023-01-07T00:48:26.288Z,0.93
2023-01-07T00:50:55.511Z,0.90
2023-01-07T00:53:31.859Z,0.82
2023-01-07T00:56:00.546Z,0.93
2023-01-07T00:58:46.382Z,0.60
2023-01-07T01:01:24.795Z,0.73
2023-01-07T01:04:10.270Z,0.70
2023-01-07T01:06:42.156Z,0.82
2023-01-07T01:09:25.340Z,0.77
2023-01-07T01:12:03.888Z,0.73
2023-01-07T01:14:33.333Z,0.65
2023-01-07T01:17:02.189Z,0.60
2023-01-07T01:19:31.829Z,0.60
2023-01-07T01:22:00.355Z,0.60
2023-01-07T01:24:28.900Z,0.70
2023-01-07T01:26:57.947Z,0.60
2023-01-07T01:29:31.962Z,0.73
2023-01-07T01:32:01.331Z,0.85
2023-01-07T01:34:33.678Z,0.80
2023-01-07T01:37:02.028Z,0.60
2023-01-07T01:39:32.751Z,0.70
2023-01-07T01:42:02.570Z,1.42
2023-01-07T01:44:40.833Z,0.85
2023-01-07T01:47:32.096Z,0.50
2023-01-07T01:50:00.745Z,0.77
2023-01-07T01:52:43.803Z,0.75
2023-01-07T01:55:13.824Z,0.60
2023-01-07T01:57:45.143Z,0.63
2023-01-07T02:00:18.231Z,0.45
2023-01-07T02:03:11.817Z,0.68
2023-01-07T02:05:52.291Z,1.05
2023-01-07T02:08:33.747Z,1.40
2023-01-07T02:11:35.176Z,0.70
2023-01-07T02:14:28.696Z,0.60
2023-01-07T02:16:56.739Z,0.55
2023-01-07T02:19:45.515Z,1.15
2023-01-07T02:22:15.786Z,0.82
2023-01-07T02:24:43.815Z,0.45
2023-01-07T02:27:18.402Z,0.68
2023-01-07T02:30:07.447Z,0.93
2023-01-07T02:32:47.843Z,0.73
2023-01-07T02:35:19.186Z,0.80
2023-01-07T02:37:47.302Z,0.70
2023-01-07T02:40:31.645Z,0.77
2023-01-07T02:43:19.868Z,0.60
2023-01-07T02:45:57.400Z,0.70
2023-01-07T02:48:26.323Z,0.80
2023-01-07T02:50:57.921Z,0.70
2023-01-07T02:53:26.510Z,0.57
2023-01-07T02:56:24.684Z,0.80
2023-01-07T02:59:08.100Z,0.60
2023-01-07T03:01:46.597Z,0.60
2023-01-07T03:04:33.140Z,0.50
2023-01-07T03:07:19.924Z,0.70
2023-01-07T03:09:57.246Z,0.68
2023-01-07T03:12:25.352Z,0.73
2023-01-07T03:15:12.148Z,0.80
2023-01-07T03:17:59.708Z,0.95
2023-01-07T03:20:28.843Z,1.30
2023-01-07T03:22:58.801Z,0.95
2023-01-07T03:25:29.849Z,0.95
2023-01-07T03:27:59.655Z,1.13
2023-01-07T03:30:30.406Z,1.23
2023-01-07T03:33:03.703Z,1.30
2023-01-07T03:35:36.524Z,1.42
2023-01-07T03:38:05.388Z,1.40
2023-01-07T03:40:33.762Z,1.30
2023-01-07T03:43:01.236Z,1.13
2023-01-07T03:45:29.934Z,1.10
2023-01-07T03:48:00.636Z,1.10
2023-01-07T03:50:36.110Z,1.13
2023-01-07T03:53:07.240Z,1.00
2023-01-07T03:55:50.210Z,1.10
2023-01-07T03:58:22.022Z,1.13
2023-01-07T04:00:58.853Z,1.02
2023-01-07T04:03:30.827Z,1.02
2023-01-07T04:05:59.596Z,1.00
2023-01-07T04:08:28.195Z,1.15
2023-01-07T04:10:59.260Z,1.05
2023-01-07T04:13:28.790Z,0.75
2023-01-07T04:15:57.653Z,0.90
2023-01-07T04:18:26.761Z,0.73
2023-01-07T04:20:56.304Z,1.00
2023-01-07T04:23:25.007Z,1.05
2023-01-07T04:25:57.637Z,0.88
2023-01-07T04:28:46.476Z,0.90
2023-01-07T04:31:19.027Z,1.17
2023-01-07T04:34:06.666Z,0.70
2023-01-07T04:36:35.573Z,1.25
2023-01-07T04:39:04.577Z,1.20
2023-01-07T04:41:33.212Z,0.80
2023-01-07T04:44:02.333Z,1.08
2023-01-07T04:46:33.221Z,0.90
2023-01-07T04:49:12.373Z,1.13
2023-01-07T04:51:48.104Z,0.82
2023-01-07T04:54:24.860Z,1.02
2023-01-07T04:56:57.892Z,0.90
2023-01-07T04:59:34.759Z,1.20
2023-01-07T05:02:11.297Z,1.08
2023-01-07T05:04:59.360Z,1.20
2023-01-07T05:07:40.255Z,1.10
2023-01-07T05:10:11.107Z,1.52
2023-01-07T05:12:42.019Z,1.05
2023-01-07T05:15:17.508Z,1.30
2023-01-07T05:17:46.820Z,1.08
2023-01-07T05:20:15.742Z,1.10
2023-01-07T05:22:50.210Z,1.48
2023-01-07T05:25:20.030Z,1.55
2023-01-07T05:27:49.230Z,1.40
2023-01-07T05:30:20.455Z,1.45
2023-01-07T05:33:07.205Z,1.20
2023-01-07T05:35:36.771Z,1.58
2023-01-07T05:38:06.521Z,1.65
2023-01-07T05:40:49.547Z,1.48
2023-01-07T05:43:34.805Z,1.40
2023-01-07T05:46:07.474Z,1.30
2023-01-07T05:48:43.063Z,1.90
2023-01-07T05:51:19.672Z,1.50
2023-01-07T05:53:50.967Z,1.27
2023-01-07T05:56:28.185Z,1.70
2023-01-07T05:58:57.075Z,1.55
2023-01-07T06:01:25.409Z,1.48
2023-01-07T06:03:56.583Z,1.63
2023-01-07T06:06:25.058Z,1.50
2023-01-07T06:08:53.774Z,1.55
2023-01-07T06:11:24.008Z,1.55
2023-01-07T06:13:53.191Z,1.30
2023-01-07T06:16:23.320Z,1.35
2023-01-07T06:18:55.112Z,1.27
2023-01-07T06:21:26.021Z,1.55
2023-01-07T06:24:08.540Z,1.45
2023-01-07T06:26:50.686Z,1.42
2023-01-07T06:29:27.653Z,1.42
2023-01-07T06:32:00.726Z,1.67
2023-01-07T06:34:33.040Z,1.30
2023-01-07T06:37:05.549Z,1.30
2023-01-07T06:39:39.020Z,1.60
2023-01-07T06:42:08.953Z,1.40
2023-01-07T06:44:38.617Z,1.30
2023-01-07T06:47:12.228Z,1.60
2023-01-07T06:49:42.221Z,1.48
2023-01-07T06:52:21.894Z,1.77
2023-01-07T06:55:00.534Z,1.33
2023-01-07T06:57:39.616Z,1.80
2023-01-07T07:00:09.107Z,1.40
2023-01-07T07:02:54.636Z,1.48
2023-01-07T07:05:25.823Z,2.22
2023-01-07T07:08:01.696Z,1.50
2023-01-07T07:10:43.881Z,1.80
2023-01-07T07:13:20.928Z,1.50
2023-01-07T07:15:51.611Z,1.70
2023-01-07T07:18:34.900Z,1.92
2023-01-07T07:21:12.734Z,1.63
2023-01-07T07:23:49.229Z,1.40
2023-01-07T07:26:17.893Z,1.17
2023-01-07T07:28:46.668Z,1.50
2023-01-07T07:31:17.646Z,1.42
2023-01-07T07:33:49.166Z,1.58
2023-01-07T07:36:17.844Z,1.50
2023-01-07T07:38:48.483Z,1.38
2023-01-07T07:41:17.712Z,1.35
2023-01-07T07:43:47.705Z,1.30
2023-01-07T07:46:16.423Z,1.48
2023-01-07T07:48:47.679Z,1.42
2023-01-07T07:51:18.923Z,1.50
2023-01-07T07:53:52.463Z,1.30
2023-01-07T07:56:27.862Z,1.60
2023-01-07T07:58:57.327Z,1.48
2023-01-07T08:01:31.071Z,1.40
2023-01-07T08:03:59.633Z,0.95
2023-01-07T08:06:34.163Z,0.85
2023-01-07T08:09:03.213Z,0.90
2023-01-07T08:11:32.946Z,0.90
2023-01-07T08:14:01.957Z,0.90
2023-01-07T08:16:33.796Z,0.93
2023-01-07T08:19:45.649Z,0.93
2023-01-07T08:22:18.124Z,0.63
2023-01-07T08:24:53.893Z,0.75
2023-01-07T08:27:30.892Z,0.90
2023-01-07T08:30:03.658Z,0.73
2023-01-07T08:32:42.033Z,0.70
2023-01-07T08:35:10.841Z,0.77
2023-01-07T08:37:42.873Z,0.73
2023-01-07T08:40:12.816Z,0.73
2023-01-07T08:42:49.582Z,0.70
2023-01-07T08:45:21.306Z,0.60
2023-01-07T08:48:00.790Z,0.60
2023-01-07T08:50:41.676Z,0.80
2023-01-07T08:53:23.490Z,0.82
2023-01-07T08:55:59.384Z,0.60
2023-01-07T08:58:39.286Z,0.80
2023-01-07T09:01:14.963Z,0.80
2023-01-07T09:03:45.379Z,0.85
2023-01-07T09:06:15.163Z,0.70
2023-01-07T09:08:44.432Z,0.50
2023-01-07T09:11:16.054Z,0.70
2023-01-07T09:13:45.173Z,0.68
2023-01-07T09:16:13.469Z,0.60
2023-01-07T09:18:42.920Z,0.88
2023-01-07T09:21:11.496Z,0.70
2023-01-07T09:23:40.583Z,0.80
2023-01-07T09:26:18.023Z,0.60
2023-01-07T09:28:50.095Z,0.70
2023-01-07T09:31:37.907Z,1.20
2023-01-07T09:34:12.510Z,1.15
2023-01-07T09:36:44.079Z,0.55
2023-01-07T09:39:22.773Z,0.47
2023-01-07T09:42:03.688Z,2.90
2023-01-07T09:44:49.967Z,0.80
2023-01-07T09:47:25.818Z,0.60
2023-01-07T09:49:56.844Z,0.77
2023-01-07T09:52:37.934Z,0.70
2023-01-07T09:55:17.625Z,1.17
2023-01-07T09:57:52.375Z,1.40
2023-01-07T10:00:37.144Z,0.60
2023-01-07T10:03:40.821Z,0.70
2023-01-07T10:06:28.850Z,0.50
2023-01-07T10:09:27.236Z,1.10
2023-01-07T10:11:57.645Z,1.20
2023-01-07T10:14:34.442Z,0.75
2023-01-07T10:19:33.659Z,0.85
2023-01-07T10:22:04.081Z,2.75
2023-01-07T10:24:43.307Z,0.93
2023-01-07T10:27:13.656Z,1.25
2023-01-07T10:29:45.915Z,0.90
2023-01-07T10:32:15.693Z,1.15
2023-01-07T10:34:48.593Z,0.90
2023-01-07T10:37:23.678Z,0.90
2023-01-07T10:40:01.170Z,0.80
2023-01-07T10:42:32.883Z,0.98
2023-01-07T10:45:19.814Z,1.00
2023-01-07T10:47:50.560Z,1.02
2023-01-07T10:50:30.178Z,1.13
2023-01-07T10:52:58.260Z,3.50
2023-01-07T10:55:32.522Z,1.85
2023-01-07T10:58:02.115Z,0.85
2023-01-07T11:00:35.392Z,2.80
2023-01-07T11:03:24.335Z,4.40
2023-01-07T11:05:58.351Z,1.67
2023-01-07T11:08:42.135Z,0.60
2023-01-07T11:11:18.091Z,1.30
2023-01-07T11:13:53.255Z,1.85
2023-01-07T11:16:26.692Z,2.13
2023-01-07T11:19:04.284Z,4.10
2023-01-07T11:21:55.174Z,1.83
2023-01-07T11:24:35.392Z,1.55
2023-01-07T11:27:06.515Z,1.40
2023-01-07T11:29:44.453Z,2.67
2023-01-07T11:32:21.921Z,1.58
2023-01-07T11:34:57.381Z,2.28
2023-01-07T11:37:39.662Z,1.85
2023-01-07T11:40:14.080Z,1.55
2023-01-07T11:42:52.048Z,1.08
2023-01-07T11:45:25.162Z,1.40
2023-01-07T11:47:59.771Z,2.30
2023-01-07T11:50:38.908Z,1.60
2023-01-07T11:53:16.538Z,0.98
2023-01-07T11:56:23.404Z,2.28
2023-01-07T11:58:53.233Z,1.73
2023-01-07T12:01:23.297Z,1.70
2023-01-07T12:03:56.378Z,1.70
2023-01-07T12:06:26.423Z,2.13
2023-01-07T12:08:54.934Z,1.42
2023-01-07T12:11:23.865Z,2.10
2023-01-07T12:13:53.998Z,1.50
2023-01-07T12:16:29.242Z,1.40
2023-01-07T12:18:59.364Z,0.90
2023-01-07T12:21:49.378Z,1.52
2023-01-07T12:24:24.092Z,3.95
2023-01-07T12:27:12.856Z,1.70
2023-01-07T12:29:53.502Z,0.82
2023-01-07T12:32:32.906Z,1.55
2023-01-07T12:35:15.811Z,1.60
2023-01-07T12:37:47.062Z,0.77
2023-01-07T12:40:17.130Z,1.33
2023-01-07T12:42:55.900Z,1.20
2023-01-07T12:45:30.471Z,1.10
2023-01-07T12:48:07.273Z,1.45
2023-01-07T12:50:45.091Z,0.88
2023-01-07T12:53:17.442Z,1.10
2023-01-07T12:55:49.479Z,0.80
2023-01-07T12:58:29.765Z,1.13
2023-01-07T13:01:00.727Z,1.10
2023-01-07T13:03:35.200Z,1.48
2023-01-07T13:06:08.713Z,1.38
2023-01-07T13:08:55.755Z,1.50
2023-01-07T13:11:51.131Z,1.80
2023-01-07T13:14:29.519Z,1.10
2023-01-07T13:17:17.424Z,2.78
2023-01-07T13:19:48.113Z,1.73
2023-01-07T13:22:22.078Z,0.90
2023-01-07T13:25:12.462Z,0.68
2023-01-07T13:28:00.448Z,3.65
2023-01-07T13:30:52.276Z,1.23
2023-01-07T13:33:26.542Z,3.50
2023-01-07T13:36:18.039Z,5.47
2023-01-07T13:38:58.210Z,3.50
2023-01-07T13:41:44.949Z,1.88
2023-01-07T13:44:22.368Z,3.38
2023-01-07T13:46:50.736Z,1.33
2023-01-07T13:49:29.952Z,1.05
2023-01-07T13:52:12.919Z,1.33
2023-01-07T13:54:50.588Z,1.35
2023-01-07T13:57:24.633Z,1.20
2023-01-07T13:59:56.946Z,0.90
2023-01-07T14:02:26.458Z,1.50
2023-01-07T14:05:23.946Z,1.35
2023-01-07T14:07:53.803Z,1.08
2023-01-07T14:10:25.226Z,0.70
2023-01-07T14:13:08.609Z,0.70
2023-01-07T14:16:03.318Z,0.90
2023-01-07T14:18:45.099Z,1.00
2023-01-07T14:21:13.222Z,0.85
2023-01-07T14:23:49.318Z,3.05
2023-01-07T14:26:36.246Z,2.45
2023-01-07T14:29:18.759Z,0.90
2023-01-07T14:31:50.810Z,1.20
2023-01-07T14:34:26.909Z,0.90
2023-01-07T14:37:05.016Z,1.13
2023-01-07T14:39:36.850Z,1.45
2023-01-07T14:42:22.048Z,1.00
2023-01-07T14:44:53.685Z,0.80
2023-01-07T14:47:40.656Z,0.80
2023-01-07T14:50:19.125Z,1.35
2023-01-07T14:53:14.390Z,1.40
2023-01-07T14:55:56.701Z,3.20
2023-01-07T14:58:38.610Z,0.65
2023-01-07T15:01:21.963Z,1.17
2023-01-07T15:03:50.088Z,0.80
2023-01-07T15:06:28.942Z,1.35
2023-01-07T15:09:20.409Z,3.03
2023-01-07T15:12:06.834Z,1.40
2023-01-07T15:14:58.117Z,1.10
2023-01-07T15:17:26.885Z,1.40
2023-01-07T15:19:56.449Z,0.90
2023-01-07T15:22:28.408Z,1.35
2023-01-07T15:25:05.833Z,0.88
2023-01-07T15:27:43.585Z,1.33
2023-01-07T15:30:21.567Z,1.13
2023-01-07T15:33:05.826Z,1.00
2023-01-07T15:35:35.180Z,1.35
2023-01-07T15:38:05.242Z,1.05
2023-01-07T15:40:39.204Z,0.90
2023-01-07T15:43:21.585Z,1.73
2023-01-07T15:46:01.820Z,1.00
2023-01-07T15:48:41.016Z,1.27
2023-01-07T15:51:18.284Z,2.92
2023-01-07T15:53:56.488Z,1.25
2023-01-07T15:56:24.983Z,1.02
2023-01-07T15:58:53.404Z,1.15
2023-01-07T16:01:24.100Z,1.20
2023-01-07T16:03:54.411Z,1.02
2023-01-07T16:06:34.419Z,1.10
2023-01-07T16:09:04.780Z,0.98
2023-01-07T16:11:33.347Z,1.30
2023-01-07T16:14:05.058Z,1.17
2023-01-07T16:16:35.908Z,1.30
2023-01-07T16:19:16.611Z,1.08
2023-01-07T16:21:59.002Z,1.35
2023-01-07T16:24:30.227Z,1.30
2023-01-07T16:27:05.127Z,1.38
2023-01-07T16:29:38.881Z,1.15
2023-01-07T16:32:07.993Z,1.45
2023-01-07T16:34:42.459Z,1.55
2023-01-07T16:37:17.768Z,1.15
2023-01-07T16:39:52.736Z,1.45
2023-01-07T16:42:23.733Z,1.23
2023-01-07T16:45:01.377Z,1.52
2023-01-07T16:47:59.773Z,1.17
2023-01-07T16:50:31.316Z,1.73
2023-01-07T16:52:59.471Z,2.22
2023-01-07T16:55:46.558Z,1.70
2023-01-07T16:58:27.891Z,2.28
2023-01-07T17:00:57.745Z,1.70
2023-01-07T17:03:26.334Z,2.50
2023-01-07T17:05:59.489Z,1.45
2023-01-07T17:08:28.208Z,4.63
2023-01-07T17:10:58.830Z,3.25
2023-01-07T17:13:33.340Z,1.60
2023-01-07T17:16:23.440Z,1.30
2023-01-07T17:18:52.399Z,1.20
2023-01-07T17:21:40.509Z,1.10
2023-01-07T17:24:23.307Z,1.42
2023-01-07T17:26:51.941Z,1.50
2023-01-07T17:29:20.429Z,1.30
2023-01-07T17:31:48.719Z,1.33
2023-01-07T17:34:18.861Z,1.40
2023-01-07T17:37:00.149Z,1.73
2023-01-07T17:39:40.130Z,1.50
2023-01-07T17:42:34.837Z,1.35
2023-01-07T17:45:19.624Z,1.27
2023-01-07T17:48:00.987Z,1.70
2023-01-07T17:50:37.930Z,1.77
2023-01-07T17:53:21.267Z,1.08
2023-01-07T17:55:50.327Z,1.98
2023-01-07T17:58:30.240Z,1.20
2023-01-07T18:00:59.899Z,1.00
2023-01-07T18:03:30.909Z,1.58
2023-01-07T18:06:04.564Z,1.50
2023-01-07T18:08:36.256Z,1.50
2023-01-07T18:11:22.185Z,1.85
2023-01-07T18:13:55.475Z,1.00
2023-01-07T18:16:32.182Z,2.22
2023-01-07T18:19:12.865Z,1.55
2023-01-07T18:21:45.223Z,1.70
2023-01-07T18:24:26.597Z,1.65
2023-01-07T18:27:00.712Z,2.00
2023-01-07T18:29:42.158Z,1.50
2023-01-07T18:32:12.702Z,2.10
2023-01-07T18:34:54.554Z,2.00
2023-01-07T18:37:23.567Z,1.63
2023-01-07T18:39:53.401Z,1.98
2023-01-07T18:42:22.321Z,1.60
2023-01-07T18:44:50.698Z,1.90
2023-01-07T18:47:19.304Z,1.80
2023-01-07T18:49:54.876Z,1.90
2023-01-07T18:52:33.442Z,1.83
2023-01-07T18:55:16.953Z,2.70
2023-01-07T18:57:51.514Z,2.70
2023-01-07T19:00:25.025Z,2.25
2023-01-07T19:03:14.059Z,1.67
2023-01-07T19:05:56.591Z,2.33
2023-01-07T19:08:28.358Z,1.55
2023-01-07T19:10:58.882Z,2.55
2023-01-07T19:13:27.775Z,2.70
2023-01-07T19:15:57.015Z,2.00
2023-01-07T19:18:27.417Z,1.60
2023-01-07T19:20:56.141Z,1.85
2023-01-07T19:23:25.397Z,1.85
2023-01-07T19:25:58.230Z,1.50
2023-01-07T19:28:27.331Z,3.75
2023-01-07T19:30:58.803Z,1.30
2023-01-07T19:33:44.793Z,1.70
2023-01-07T19:36:17.545Z,2.40
2023-01-07T19:38:57.058Z,1.42
2023-01-07T19:41:26.969Z,1.27
2023-01-07T19:43:59.108Z,1.83
2023-01-07T19:46:28.131Z,2.88
2023-01-07T19:48:58.953Z,2.28
2023-01-07T19:51:28.086Z,2.42
2023-01-07T19:53:56.952Z,3.35
2023-01-07T19:56:26.182Z,2.10
2023-01-07T19:58:55.487Z,2.10
2023-01-07T20:01:26.699Z,2.97
2023-01-07T20:04:00.627Z,2.08
2023-01-07T20:06:35.457Z,1.67
2023-01-07T20:09:10.390Z,1.90
2023-01-07T20:11:42.616Z,1.98
2023-01-07T20:14:14.820Z,1.88
2023-01-07T20:16:48.841Z,1.77
2023-01-07T20:19:17.961Z,2.08
2023-01-07T20:21:48.194Z,1.00
2023-01-07T20:24:17.879Z,1.98
2023-01-07T20:26:46.600Z,1.95
2023-01-07T20:29:17.873Z,2.38
2023-01-07T20:31:46.728Z,2.25
2023-01-07T20:34:15.464Z,2.40
2023-01-07T20:36:44.123Z,2.60
2023-01-07T20:39:18.303Z,2.58
2023-01-07T20:41:47.303Z,2.20
2023-01-07T20:44:17.068Z,2.60
2023-01-07T20:46:51.393Z,2.72
2023-01-07T20:49:25.608Z,2.33
2023-01-07T20:51:55.441Z,2.42
2023-01-07T20:54:30.559Z,2.45
2023-01-07T20:57:05.820Z,3.20
2023-01-07T20:59:37.866Z,2.47
2023-01-07T21:02:07.881Z,2.22
2023-01-07T21:04:44.345Z,2.67
2023-01-07T21:07:13.625Z,2.85
2023-01-07T21:09:44.466Z,3.20
2023-01-07T21:12:13.109Z,2.63
2023-01-07T21:14:42.290Z,2.20
2023-01-07T21:17:11.540Z,2.15
2023-01-07T21:19:41.071Z,3.10
2023-01-07T21:22:09.580Z,1.85
2023-01-07T21:24:37.857Z,2.38
2023-01-07T21:27:07.316Z,3.08
2023-01-07T21:29:51.253Z,2.47
2023-01-07T21:32:20.042Z,2.10
2023-01-07T21:34:48.989Z,1.80
2023-01-07T21:37:18.025Z,2.00
2023-01-07T21:39:46.437Z,9.77
2023-01-07T21:42:14.953Z,2.90
2023-01-07T21:44:44.147Z,3.05
2023-01-07T21:47:16.047Z,3.13
2023-01-07T21:49:46.076Z,5.65
2023-01-07T21:52:17.093Z,4.75
2023-01-07T21:57:33.945Z,6.10
2023-01-07T22:00:07.277Z,2.88
2023-01-07T22:02:59.802Z,4.75
2023-01-07T22:05:45.309Z,5.05
2023-01-07T22:08:15.034Z,13.55
2023-01-07T22:10:51.176Z,10.65
2023-01-07T22:13:20.718Z,7.45
2023-01-07T22:15:52.591Z,6.85
2023-01-07T22:18:34.248Z,5.70
2023-01-07T22:23:38.880Z,3.33
2023-01-07T22:26:18.980Z,2.50
2023-01-07T22:28:59.156Z,2.20
2023-01-07T22:31:37.462Z,3.15
2023-01-07T22:34:14.508Z,3.38
2023-01-07T22:36:59.029Z,4.03
2023-01-07T22:39:28.232Z,3.15
2023-01-07T22:41:59.132Z,2.15
2023-01-07T22:44:29.977Z,3.85
2023-01-07T22:46:59.684Z,2.55
2023-01-07T22:49:31.474Z,1.90
2023-01-07T22:52:02.323Z,1.98
2023-01-07T22:54:33.566Z,1.60
2023-01-07T22:57:05.868Z,1.38
2023-01-07T22:59:36.604Z,1.52
2023-01-07T23:02:05.118Z,1.08
2023-01-07T23:04:37.343Z,1.65
2023-01-07T23:07:12.761Z,1.30
2023-01-07T23:09:53.417Z,1.67
2023-01-07T23:12:36.779Z,1.00
2023-01-07T23:15:12.908Z,1.45
2023-01-07T23:17:48.970Z,1.35
2023-01-07T23:20:26.179Z,1.40
2023-01-07T23:23:09.464Z,1.98
2023-01-07T23:25:49.953Z,1.83
2023-01-07T23:28:19.395Z,1.10
2023-01-07T23:30:48.972Z,1.40
2023-01-07T23:33:22.926Z,1.58
2023-01-07T23:35:53.559Z,1.10
2023-01-07T23:38:23.010Z,1.30
2023-01-07T23:41:00.197Z,1.15
2023-01-07T23:43:29.111Z,1.15
2023-01-07T23:45:59.151Z,1.00
2023-01-07T23:48:30.630Z,1.42
2023-01-07T23:51:09.405Z,2.08
2023-01-07T23:53:47.146Z,1.17
2023-01-07T23:56:26.126Z,1.33
2023-01-07T23:59:03.689Z,1.55
